Time;durP1;ratioP1;P1;durP2;ratioP2;P2;SDS_P1;SDS_P2;PMS_P1;PMS_P2;Temp;Humidity;BMP_temperature;BMP_pressure;BME280_temperature;BME280_humidity;BME280_pressure;Samples;Min_cycle;Max_cycle;Signal;HPM_P1;HPM_P2
2022/03/22 00:02:15;;;;;;;;;;;10.00;81.50;;;;;;5073158;28;20383;-69
2022/03/22 00:04:41;;;;;;;;;;;9.90;81.60;;;;;;5081348;28;19969;-69
2022/03/22 00:07:08;;;;;;;;;;;9.90;81.80;;;;;;5082589;28;20022;-69
2022/03/22 00:09:34;;;;;;;;;;;9.90;81.80;;;;;;5072677;28;19912;-69
2022/03/22 00:11:59;;;;;;;;;;;9.90;81.50;;;;;;5084510;28;19934;-69
2022/03/22 00:14:25;;;;;;;;;;;9.80;81.60;;;;;;5085013;28;20007;-69
2022/03/22 00:16:53;;;;;;;;;;;9.80;81.70;;;;;;5083601;28;20007;-69
2022/03/22 00:19:19;;;;;;;;;;;9.80;81.30;;;;;;5082087;28;20500;-69
2022/03/22 00:21:46;;;;;;;;;;;9.80;81.70;;;;;;5083976;28;19915;-69
2022/03/22 00:24:12;;;;;;;;;;;9.80;81.60;;;;;;5083613;28;19919;-69
2022/03/22 00:26:38;;;;;;;;;;;9.80;81.80;;;;;;5081110;28;19912;-69
2022/03/22 00:29:04;;;;;;;;;;;9.70;81.60;;;;;;5063053;28;19916;-69
2022/03/22 00:31:30;;;;;;;;;;;9.70;81.80;;;;;;5081383;28;19912;-69
2022/03/22 00:33:55;;;;;;;;;;;9.70;81.60;;;;;;5072821;28;20730;-69
2022/03/22 00:36:21;;;;;;;;;;;9.70;81.80;;;;;;5083165;28;19913;-69
2022/03/22 00:38:46;;;;;;;;;;;9.70;81.90;;;;;;5083922;28;19912;-69
2022/03/22 00:41:13;;;;;;;;;;;9.60;81.60;;;;;;5067137;28;19951;-69
2022/03/22 00:43:39;;;;;;;;;;;9.70;81.90;;;;;;5082624;28;19912;-69
2022/03/22 00:46:05;;;;;;;;;;;9.60;81.50;;;;;;5083151;28;19973;-69
2022/03/22 00:48:31;;;;;;;;;;;9.60;81.60;;;;;;5083701;28;19912;-69
2022/03/22 00:50:57;;;;;;;;;;;9.60;81.70;;;;;;5083025;28;19913;-69
2022/03/22 00:53:23;;;;;;;;;;;9.60;81.50;;;;;;5079650;28;20445;-69
2022/03/22 00:55:49;;;;;;;;;;;9.50;81.60;;;;;;5078624;28;19912;-69
2022/03/22 00:58:15;;;;;;;;;;;9.50;81.50;;;;;;5060853;28;20016;-69
2022/03/22 01:00:41;;;;;;;;;;;9.50;81.50;;;;;;5080448;28;19912;-69
2022/03/22 01:03:08;;;;;;;;;;;9.50;81.70;;;;;;5088080;28;19908;-69
2022/03/22 01:05:35;;;;;;;;;;;9.50;81.70;;;;;;5088358;28;20022;-69
2022/03/22 01:08:05;;;;;;;;;;;9.50;81.70;;;;;;5087234;28;19912;-69
2022/03/22 01:10:31;;;;;;;;;;;9.40;81.70;;;;;;5086299;28;19958;-69
2022/03/22 01:12:57;;;;;;;;;;;9.40;81.50;;;;;;5087428;28;19912;-69
2022/03/22 01:15:24;;;;;;;;;;;9.40;81.40;;;;;;5068609;28;20628;-69
2022/03/22 01:17:52;;;;;;;;;;;9.40;81.60;;;;;;5087089;28;19965;-69
2022/03/22 01:20:20;;;;;;;;;;;9.40;81.50;;;;;;5084258;28;20034;-69
2022/03/22 01:22:47;;;;;;;;;;;9.40;81.50;;;;;;5085214;28;20007;-69
2022/03/22 01:25:17;;;;;;;;;;;9.40;81.30;;;;;;5086202;28;19912;-69
2022/03/22 01:27:43;;;;;;;;;;;9.30;81.50;;;;;;5087296;28;20034;-69
2022/03/22 01:30:10;;;;;;;;;;;9.40;81.30;;;;;;5082980;28;19912;-69
2022/03/22 01:32:35;;;;;;;;;;;9.30;81.30;;;;;;5083147;28;19924;-69
2022/03/22 01:35:02;;;;;;;;;;;9.30;81.40;;;;;;5086426;28;19912;-69
2022/03/22 01:37:28;;;;;;;;;;;9.30;81.30;;;;;;5086200;28;19942;-69
2022/03/22 01:39:53;;;;;;;;;;;9.30;81.20;;;;;;5086578;28;19999;-69
2022/03/22 01:42:20;;;;;;;;;;;9.30;81.40;;;;;;5086182;28;19912;-69
2022/03/22 01:44:45;;;;;;;;;;;9.30;80.90;;;;;;5084335;28;19923;-69
2022/03/22 01:47:11;;;;;;;;;;;9.20;80.70;;;;;;5085001;28;19908;-69
2022/03/22 01:49:36;;;;;;;;;;;9.20;81.10;;;;;;5084448;28;20368;-69
2022/03/22 01:52:05;;;;;;;;;;;9.20;81.30;;;;;;5085058;28;19931;-69
2022/03/22 01:54:30;;;;;;;;;;;9.20;81.00;;;;;;5088014;28;19931;-69
2022/03/22 01:56:56;;;;;;;;;;;9.20;81.20;;;;;;5086916;28;19986;-69
2022/03/22 01:59:22;;;;;;;;;;;9.10;80.80;;;;;;5083397;28;20006;-69
2022/03/22 02:07:18;;;;;;;;;;;9.10;81.00;;;;;;5083118;28;19923;-68
2022/03/22 02:09:44;;;;;;;;;;;9.10;80.20;;;;;;5086584;28;20000;-68
2022/03/22 02:12:09;;;;;;;;;;;9.10;80.50;;;;;;5081552;28;19924;-68
2022/03/22 02:14:35;;;;;;;;;;;9.10;81.20;;;;;;5087232;28;20545;-68
2022/03/22 02:17:09;;;;;;;;;;;9.00;81.00;;;;;;5086782;28;20046;-68
2022/03/22 02:19:39;;;;;;;;;;;9.10;81.00;;;;;;5086021;28;19916;-68
2022/03/22 02:22:06;;;;;;;;;;;9.10;80.50;;;;;;5070746;28;20017;-68
2022/03/22 02:24:32;;;;;;;;;;;9.00;80.60;;;;;;5087208;28;19908;-68
2022/03/22 02:26:57;;;;;;;;;;;9.00;80.70;;;;;;5085572;28;19915;-68
2022/03/22 02:29:23;;;;;;;;;;;9.00;80.80;;;;;;5085261;28;19912;-68
2022/03/22 02:31:48;;;;;;;;;;;9.00;80.40;;;;;;5083124;28;19939;-68
2022/03/22 02:34:14;;;;;;;;;;;9.00;81.20;;;;;;5084078;28;19953;-68
2022/03/22 02:36:39;;;;;;;;;;;9.00;80.80;;;;;;5086888;28;19937;-68
2022/03/22 02:39:05;;;;;;;;;;;9.00;81.10;;;;;;5086699;28;19912;-68
2022/03/22 02:41:30;;;;;;;;;;;8.90;80.30;;;;;;5084257;28;19927;-68
2022/03/22 02:43:56;;;;;;;;;;;8.90;81.00;;;;;;5083968;28;19916;-68
2022/03/22 02:46:21;;;;;;;;;;;8.90;81.20;;;;;;5083143;28;20050;-68
2022/03/22 02:48:47;;;;;;;;;;;8.90;81.90;;;;;;5087000;28;20545;-68
2022/03/22 02:51:12;;;;;;;;;;;8.90;81.10;;;;;;5084741;28;19916;-68
2022/03/22 02:53:38;;;;;;;;;;;8.90;81.20;;;;;;5083636;28;20551;-68
2022/03/22 02:56:04;;;;;;;;;;;8.90;80.80;;;;;;5081935;28;19923;-68
2022/03/22 02:58:29;;;;;;;;;;;8.90;81.00;;;;;;5086113;28;19998;-68
2022/03/22 03:00:55;;;;;;;;;;;8.80;80.60;;;;;;5085672;28;19912;-68
2022/03/22 03:03:22;;;;;;;;;;;8.80;80.40;;;;;;5084323;28;19927;-68
2022/03/22 03:05:51;;;;;;;;;;;8.80;80.60;;;;;;5083806;28;19931;-68
2022/03/22 03:08:17;;;;;;;;;;;8.80;80.20;;;;;;5084135;28;19915;-68
2022/03/22 03:10:43;;;;;;;;;;;8.80;80.80;;;;;;5084480;28;19916;-68
2022/03/22 03:13:09;;;;;;;;;;;8.80;80.40;;;;;;5085275;28;19968;-68
2022/03/22 03:15:34;;;;;;;;;;;8.80;80.60;;;;;;5084442;28;20542;-68
2022/03/22 03:17:59;;;;;;;;;;;8.80;79.90;;;;;;5083879;28;19912;-68
2022/03/22 03:20:25;;;;;;;;;;;8.70;80.50;;;;;;5081458;28;20004;-68
2022/03/22 03:22:51;;;;;;;;;;;8.80;80.20;;;;;;5080966;28;20342;-68
2022/03/22 03:25:18;;;;;;;;;;;8.70;80.20;;;;;;5081695;28;20316;-68
2022/03/22 03:27:43;;;;;;;;;;;8.70;80.50;;;;;;5083646;28;19923;-68
2022/03/22 03:30:09;;;;;;;;;;;8.70;80.80;;;;;;5067321;28;19916;-68
2022/03/22 03:32:34;;;;;;;;;;;8.70;80.70;;;;;;5082981;28;19923;-68
2022/03/22 03:35:00;;;;;;;;;;;8.70;80.40;;;;;;5083524;28;19920;-68
2022/03/22 03:37:28;;;;;;;;;;;8.70;80.60;;;;;;5083840;28;19958;-68
2022/03/22 03:39:54;;;;;;;;;;;8.70;79.70;;;;;;5084185;28;19923;-68
2022/03/22 03:42:19;;;;;;;;;;;8.70;80.30;;;;;;5081672;28;19908;-68
2022/03/22 03:47:29;;;;;;;;;;;8.70;80.60;;;;;;5083300;28;20345;-68
2022/03/22 03:49:56;;;;;;;;;;;8.60;80.30;;;;;;5070047;28;19909;-68
2022/03/22 03:52:23;;;;;;;;;;;8.60;80.30;;;;;;5070014;28;20303;-68
2022/03/22 03:54:48;;;;;;;;;;;8.60;80.20;;;;;;5082056;28;19920;-68
2022/03/22 03:57:14;;;;;;;;;;;8.60;80.30;;;;;;5080954;28;19993;-68
2022/03/22 03:59:40;;;;;;;;;;;8.60;80.40;;;;;;5085112;28;19935;-68
2022/03/22 04:02:06;;;;;;;;;;;8.60;80.20;;;;;;5084683;28;20321;-68
2022/03/22 04:04:35;;;;;;;;;;;8.60;80.20;;;;;;5069815;28;20629;-68
2022/03/22 04:07:01;;;;;;;;;;;8.50;80.20;;;;;;5082818;28;19923;-68
2022/03/22 04:09:26;;;;;;;;;;;8.50;80.30;;;;;;5066215;28;20320;-68
2022/03/22 04:11:52;;;;;;;;;;;8.50;80.20;;;;;;5082754;28;19935;-68
2022/03/22 04:14:18;;;;;;;;;;;8.50;80.40;;;;;;5084996;28;19926;-68
2022/03/22 04:16:44;;;;;;;;;;;8.50;80.40;;;;;;5082114;28;20368;-68
2022/03/22 04:19:09;;;;;;;;;;;8.50;80.40;;;;;;5083218;28;19923;-68
2022/03/22 04:21:35;;;;;;;;;;;8.50;80.40;;;;;;5081588;28;19938;-68
2022/03/22 04:24:02;;;;;;;;;;;8.40;80.20;;;;;;5081536;28;20300;-68
2022/03/22 04:26:28;;;;;;;;;;;8.40;80.50;;;;;;5068957;28;19935;-68
2022/03/22 04:32:41;;;;;;;;;;;8.40;80.20;;;;;;5081867;28;19919;-68
2022/03/22 04:34:42;;;;;;;;;;;8.40;80.50;;;;;;5084090;28;20316;-68
2022/03/22 04:37:08;;;;;;;;;;;8.40;80.20;;;;;;5086953;28;19908;-68
2022/03/22 04:39:34;;;;;;;;;;;8.40;80.10;;;;;;5086602;28;20022;-68
2022/03/22 04:42:00;;;;;;;;;;;8.40;80.30;;;;;;5088226;28;20729;-68
2022/03/22 04:44:28;;;;;;;;;;;8.40;80.40;;;;;;5087991;28;19912;-68
2022/03/22 04:46:54;;;;;;;;;;;8.30;80.10;;;;;;5085341;28;19912;-68
2022/03/22 04:49:20;;;;;;;;;;;8.30;80.00;;;;;;5085974;28;19949;-68
2022/03/22 04:57:14;;;;;;;;;;;8.30;80.40;;;;;;5086568;28;19934;-68
2022/03/22 04:59:39;;;;;;;;;;;8.30;80.50;;;;;;5085629;28;19924;-68
2022/03/22 05:02:05;;;;;;;;;;;8.30;80.40;;;;;;5083832;28;19912;-68
2022/03/22 05:04:30;;;;;;;;;;;8.30;80.60;;;;;;5088934;28;20007;-68
2022/03/22 05:06:56;;;;;;;;;;;8.20;80.60;;;;;;5086882;28;19954;-68
2022/03/22 05:09:22;;;;;;;;;;;8.20;80.60;;;;;;5086781;28;20008;-68
2022/03/22 05:11:48;;;;;;;;;;;8.20;80.80;;;;;;5086154;28;19925;-68
2022/03/22 05:14:14;;;;;;;;;;;8.20;80.80;;;;;;5084012;28;19916;-68
2022/03/22 05:16:39;;;;;;;;;;;8.20;80.80;;;;;;5083798;28;19981;-68
2022/03/22 05:19:05;;;;;;;;;;;8.20;80.90;;;;;;5085529;28;19966;-68
2022/03/22 05:21:31;;;;;;;;;;;8.20;80.80;;;;;;5068157;28;20023;-68
2022/03/22 05:23:57;;;;;;;;;;;8.10;80.80;;;;;;5086263;28;20449;-68
2022/03/22 05:26:24;;;;;;;;;;;8.10;80.70;;;;;;5069942;28;19912;-68
2022/03/22 05:28:49;;;;;;;;;;;8.10;80.70;;;;;;5086270;28;19938;-68
2022/03/22 05:31:15;;;;;;;;;;;8.10;80.80;;;;;;5085185;28;19916;-68
2022/03/22 05:33:41;;;;;;;;;;;8.10;80.70;;;;;;5082658;28;20308;-68
2022/03/22 05:36:07;;;;;;;;;;;8.10;80.70;;;;;;5086758;28;19962;-68
2022/03/22 05:38:32;;;;;;;;;;;8.10;80.70;;;;;;5086396;28;20308;-68
2022/03/22 05:41:02;;;;;;;;;;;8.00;80.60;;;;;;5080831;28;20045;-68
2022/03/22 05:43:27;;;;;;;;;;;8.00;80.70;;;;;;5086486;28;19912;-68
2022/03/22 05:45:53;;;;;;;;;;;8.00;80.60;;;;;;5084120;28;19919;-68
2022/03/22 05:48:19;;;;;;;;;;;8.00;80.70;;;;;;5084170;28;19948;-68
2022/03/22 05:50:45;;;;;;;;;;;8.00;80.60;;;;;;5084550;28;20003;-68
2022/03/22 05:53:10;;;;;;;;;;;8.00;80.60;;;;;;5085820;28;19912;-68
2022/03/22 05:55:36;;;;;;;;;;;8.00;80.60;;;;;;5085158;28;19919;-68
2022/03/22 05:58:02;;;;;;;;;;;8.00;80.60;;;;;;5083349;28;20302;-68
2022/03/22 06:00:28;;;;;;;;;;;8.00;80.50;;;;;;5067447;28;19920;-68
2022/03/22 06:02:54;;;;;;;;;;;8.00;80.50;;;;;;5085714;28;20396;-68
2022/03/22 06:05:19;;;;;;;;;;;8.00;80.60;;;;;;5083790;28;20430;-68
2022/03/22 06:07:45;;;;;;;;;;;7.90;80.50;;;;;;5085761;28;20006;-68
2022/03/22 06:10:14;;;;;;;;;;;7.90;80.40;;;;;;5085546;28;19923;-68
2022/03/22 06:12:41;;;;;;;;;;;8.00;80.40;;;;;;5083891;28;19940;-68
2022/03/22 06:15:17;;;;;;;;;;;7.90;80.40;;;;;;5085409;28;19912;-68
2022/03/22 06:17:46;;;;;;;;;;;7.90;80.40;;;;;;5084252;28;19977;-68
2022/03/22 06:20:12;;;;;;;;;;;7.90;80.30;;;;;;5082529;28;19989;-68
2022/03/22 06:22:38;;;;;;;;;;;7.90;80.30;;;;;;5084197;28;19912;-68
2022/03/22 06:25:04;;;;;;;;;;;7.90;80.20;;;;;;5083037;28;19912;-68
2022/03/22 06:27:29;;;;;;;;;;;7.90;80.20;;;;;;5084859;28;19912;-68
2022/03/22 06:29:55;;;;;;;;;;;7.90;80.20;;;;;;5085029;28;19955;-68
2022/03/22 06:32:20;;;;;;;;;;;7.90;80.30;;;;;;5082809;28;20537;-68
2022/03/22 06:34:47;;;;;;;;;;;7.90;80.20;;;;;;5084113;28;20459;-68
2022/03/22 06:37:13;;;;;;;;;;;7.90;80.10;;;;;;5070304;28;20061;-68
2022/03/22 06:39:38;;;;;;;;;;;7.90;80.10;;;;;;5085423;28;19928;-68
2022/03/22 06:42:04;;;;;;;;;;;7.90;80.10;;;;;;5082157;28;20602;-68
2022/03/22 06:44:30;;;;;;;;;;;7.90;80.00;;;;;;5084675;28;19915;-68
2022/03/22 06:46:55;;;;;;;;;;;7.90;79.90;;;;;;5085604;28;20402;-68
2022/03/22 06:49:23;;;;;;;;;;;7.90;79.80;;;;;;5069345;28;19943;-68
2022/03/22 06:51:49;;;;;;;;;;;8.00;79.90;;;;;;5082932;28;20570;-68
2022/03/22 06:54:14;;;;;;;;;;;8.00;79.80;;;;;;5082898;28;19916;-68
2022/03/22 06:56:40;;;;;;;;;;;8.00;79.90;;;;;;5082651;28;20492;-68
2022/03/22 06:59:05;;;;;;;;;;;8.00;79.70;;;;;;5083836;28;19920;-68
2022/03/22 07:01:31;;;;;;;;;;;8.00;79.20;;;;;;5081969;28;20023;-68
2022/03/22 07:03:57;;;;;;;;;;;8.00;79.40;;;;;;5081539;28;19908;-68
2022/03/22 07:06:23;;;;;;;;;;;8.00;79.40;;;;;;5067712;28;19924;-68
2022/03/22 07:08:48;;;;;;;;;;;8.00;79.30;;;;;;5083893;28;19912;-68
2022/03/22 07:13:58;;;;;;;;;;;8.10;79.10;;;;;;5083012;28;20300;-68
2022/03/22 07:16:27;;;;;;;;;;;8.10;78.80;;;;;;5081522;28;19912;-68
2022/03/22 07:18:53;;;;;;;;;;;8.10;78.90;;;;;;5083224;28;19916;-68
2022/03/22 07:21:19;;;;;;;;;;;8.10;78.80;;;;;;5082363;28;19919;-68
2022/03/22 07:23:44;;;;;;;;;;;8.10;78.70;;;;;;5082608;28;19916;-68
2022/03/22 07:26:10;;;;;;;;;;;8.20;78.50;;;;;;5085541;28;19914;-68
2022/03/22 07:28:35;;;;;;;;;;;8.20;77.80;;;;;;5084003;28;19920;-68
2022/03/22 07:31:01;;;;;;;;;;;8.20;78.10;;;;;;5069082;28;19954;-68
2022/03/22 07:33:27;;;;;;;;;;;8.20;78.10;;;;;;5067438;28;20148;-68
2022/03/22 07:35:52;;;;;;;;;;;8.30;77.90;;;;;;5077068;28;19931;-68
2022/03/22 07:38:18;;;;;;;;;;;8.30;77.80;;;;;;5084542;28;19923;-68
2022/03/22 07:40:43;;;;;;;;;;;8.40;77.80;;;;;;5082691;28;19915;-68
2022/03/22 07:43:09;;;;;;;;;;;8.40;77.70;;;;;;5084023;28;19908;-68
2022/03/22 07:45:34;;;;;;;;;;;8.50;77.50;;;;;;5084093;28;19916;-68
2022/03/22 07:48:00;;;;;;;;;;;8.50;77.00;;;;;;5083465;28;19956;-68
2022/03/22 07:53:10;;;;;;;;;;;8.70;76.90;;;;;;5081129;28;20322;-68
2022/03/22 07:55:37;;;;;;;;;;;8.80;76.80;;;;;;5080313;28;19923;-68
2022/03/22 07:58:05;;;;;;;;;;;8.80;76.70;;;;;;5081202;28;19920;-68
2022/03/22 08:00:31;;;;;;;;;;;8.90;76.50;;;;;;5083529;28;19916;-68
2022/03/22 08:02:58;;;;;;;;;;;9.00;76.30;;;;;;5085598;28;20441;-68
2022/03/22 08:05:24;;;;;;;;;;;9.10;75.90;;;;;;5068889;28;19966;-68
2022/03/22 08:07:49;;;;;;;;;;;9.20;75.80;;;;;;5083921;28;19916;-68
2022/03/22 08:10:15;;;;;;;;;;;9.30;75.40;;;;;;5082683;28;19981;-68
2022/03/22 08:12:41;;;;;;;;;;;9.40;75.20;;;;;;5084312;28;19920;-68
2022/03/22 08:15:08;;;;;;;;;;;9.50;75.00;;;;;;5085324;28;20568;-68
2022/03/22 08:17:34;;;;;;;;;;;9.60;74.60;;;;;;5081829;28;19912;-68
2022/03/22 08:20:00;;;;;;;;;;;9.60;74.70;;;;;;5083976;28;19912;-68
2022/03/22 08:22:25;;;;;;;;;;;9.80;74.40;;;;;;5080715;28;19919;-68
2022/03/22 08:24:52;;;;;;;;;;;9.90;74.50;;;;;;5072149;28;19913;-68
2022/03/22 08:27:18;;;;;;;;;;;9.90;74.10;;;;;;5079310;28;20257;-68
2022/03/22 08:29:44;;;;;;;;;;;10.00;74.10;;;;;;5082372;28;19912;-68
2022/03/22 08:32:09;;;;;;;;;;;10.10;73.80;;;;;;5080544;28;19926;-68
2022/03/22 08:34:35;;;;;;;;;;;10.20;73.50;;;;;;5082560;28;20003;-68
2022/03/22 08:37:02;;;;;;;;;;;10.30;73.30;;;;;;5083179;28;19922;-68
2022/03/22 08:39:28;;;;;;;;;;;10.40;73.40;;;;;;5083935;28;19955;-68
2022/03/22 08:41:53;;;;;;;;;;;10.50;73.30;;;;;;5084302;28;20625;-68
2022/03/22 08:44:20;;;;;;;;;;;10.60;73.00;;;;;;5084609;28;20408;-68
2022/03/22 08:46:46;;;;;;;;;;;10.60;72.30;;;;;;5080467;28;19938;-68
2022/03/22 08:49:12;;;;;;;;;;;10.70;72.30;;;;;;5083723;28;19908;-68
2022/03/22 08:51:37;;;;;;;;;;;10.70;71.80;;;;;;5082501;28;20272;-68
2022/03/22 08:54:06;;;;;;;;;;;10.80;71.90;;;;;;5083748;28;19922;-68
2022/03/22 08:56:32;;;;;;;;;;;10.80;71.40;;;;;;5084866;28;20015;-68
2022/03/22 08:58:57;;;;;;;;;;;10.90;71.40;;;;;;5082042;28;19920;-68
2022/03/22 09:01:27;;;;;;;;;;;10.90;71.40;;;;;;5072628;28;19912;-68
2022/03/22 09:06:38;;;;;;;;;;;11.00;71.60;;;;;;5079578;28;20004;-68
2022/03/22 09:09:05;;;;;;;;;;;11.10;71.60;;;;;;5082595;28;20050;-68
2022/03/22 09:11:30;;;;;;;;;;;11.10;71.40;;;;;;5083594;28;20037;-68
2022/03/22 09:13:56;;;;;;;;;;;11.10;71.30;;;;;;5085050;28;19977;-68
2022/03/22 09:16:21;;;;;;;;;;;11.20;71.00;;;;;;5083247;28;20218;-68
2022/03/22 09:18:47;;;;;;;;;;;11.20;71.00;;;;;;5084934;28;19912;-68
2022/03/22 09:21:13;;;;;;;;;;;11.30;71.10;;;;;;5081742;28;20357;-68
2022/03/22 09:23:40;;;;;;;;;;;11.30;71.20;;;;;;5087579;28;19919;-68
2022/03/22 09:26:06;;;;;;;;;;;11.30;71.10;;;;;;5087388;28;20046;-68
2022/03/22 09:28:31;;;;;;;;;;;11.30;71.10;;;;;;5087613;28;20006;-68
2022/03/22 09:30:57;;;;;;;;;;;11.30;71.40;;;;;;5083184;28;19908;-68
2022/03/22 09:33:22;;;;;;;;;;;11.40;70.60;;;;;;5083762;28;19973;-68
2022/03/22 09:35:48;;;;;;;;;;;11.40;70.90;;;;;;5074013;28;19942;-68
2022/03/22 09:38:14;;;;;;;;;;;11.50;70.60;;;;;;5088462;28;19912;-68
2022/03/22 09:40:39;;;;;;;;;;;11.50;70.40;;;;;;5086763;28;19912;-68
2022/03/22 09:43:08;;;;;;;;;;;11.50;70.60;;;;;;5075176;28;19994;-68
2022/03/22 09:45:33;;;;;;;;;;;11.50;70.30;;;;;;5076442;28;19920;-68
2022/03/22 09:47:59;;;;;;;;;;;11.50;70.60;;;;;;5084938;28;19912;-68
2022/03/22 09:53:11;;;;;;;;;;;11.60;70.70;;;;;;5085837;28;20386;-68
2022/03/22 09:55:36;;;;;;;;;;;11.60;70.30;;;;;;5085606;28;19916;-68
2022/03/22 09:58:02;;;;;;;;;;;11.70;70.50;;;;;;5086306;28;20283;-68
2022/03/22 10:00:28;;;;;;;;;;;11.70;70.00;;;;;;5077535;28;19985;-68
2022/03/22 10:02:53;;;;;;;;;;;11.80;70.60;;;;;;5082823;28;19912;-68
2022/03/22 10:05:23;;;;;;;;;;;11.70;70.20;;;;;;5085879;28;20344;-68
2022/03/22 10:08:04;;;;;;;;;;;11.80;70.20;;;;;;5084844;28;19948;-68
2022/03/22 10:10:30;;;;;;;;;;;11.80;70.50;;;;;;5086402;28;19915;-68
2022/03/22 10:12:57;;;;;;;;;;;11.90;70.20;;;;;;5081818;28;19916;-68
2022/03/22 10:15:28;;;;;;;;;;;11.90;70.30;;;;;;5083310;28;19979;-68
2022/03/22 10:17:59;;;;;;;;;;;12.00;69.70;;;;;;5084134;28;19912;-68
2022/03/22 10:20:25;;;;;;;;;;;12.00;69.60;;;;;;5084084;28;19918;-68
2022/03/22 10:22:55;;;;;;;;;;;12.00;69.90;;;;;;5086364;28;19912;-68
2022/03/22 10:25:20;;;;;;;;;;;12.10;69.50;;;;;;5085102;28;19912;-68
2022/03/22 10:27:46;;;;;;;;;;;12.10;69.90;;;;;;5085406;28;20302;-68
2022/03/22 10:30:11;;;;;;;;;;;12.10;69.30;;;;;;5083853;28;19916;-68
2022/03/22 10:32:44;;;;;;;;;;;12.20;69.70;;;;;;5082852;28;20230;-68
2022/03/22 10:35:10;;;;;;;;;;;12.20;68.90;;;;;;5083227;28;19912;-68
2022/03/22 10:37:36;;;;;;;;;;;12.30;69.30;;;;;;5084665;28;19950;-68
2022/03/22 10:40:02;;;;;;;;;;;12.30;69.20;;;;;;5079187;28;20333;-68
2022/03/22 10:42:28;;;;;;;;;;;12.40;67.90;;;;;;5081935;28;19930;-68
2022/03/22 10:44:57;;;;;;;;;;;12.40;68.70;;;;;;5084174;28;20319;-68
2022/03/22 10:47:26;;;;;;;;;;;12.50;67.90;;;;;;5082185;28;19923;-68
2022/03/22 10:50:07;;;;;;;;;;;12.60;68.00;;;;;;5082013;28;19909;-68
2022/03/22 10:52:33;;;;;;;;;;;12.60;68.50;;;;;;5084710;28;19912;-68
2022/03/22 10:58:02;;;;;;;;;;;12.80;67.60;;;;;;5068330;28;19931;-68
2022/03/22 11:00:27;;;;;;;;;;;12.90;67.60;;;;;;5082546;28;19924;-68
2022/03/22 11:02:54;;;;;;;;;;;13.00;68.00;;;;;;5083472;28;19912;-68
2022/03/22 11:05:20;;;;;;;;;;;13.10;67.90;;;;;;5085997;28;19912;-68
2022/03/22 11:07:50;;;;;;;;;;;13.20;67.90;;;;;;5084707;28;19912;-68
2022/03/22 11:10:17;;;;;;;;;;;13.30;67.70;;;;;;5072383;28;19923;-68
2022/03/22 11:12:43;;;;;;;;;;;13.40;67.90;;;;;;5085129;28;19927;-68
2022/03/22 11:15:09;;;;;;;;;;;13.60;67.30;;;;;;5084138;28;19908;-68
2022/03/22 11:17:35;;;;;;;;;;;13.70;67.30;;;;;;5067413;28;20586;-68
2022/03/22 11:20:04;;;;;;;;;;;13.80;66.40;;;;;;5082676;28;19916;-68
2022/03/22 11:22:30;;;;;;;;;;;13.90;67.50;;;;;;5083924;28;19913;-68
2022/03/22 11:25:06;;;;;;;;;;;14.00;67.20;;;;;;5067923;28;20037;-68
2022/03/22 11:27:31;;;;;;;;;;;14.10;67.30;;;;;;5084242;28;19922;-68
2022/03/22 11:29:57;;;;;;;;;;;14.30;67.20;;;;;;5083355;28;19979;-68
2022/03/22 11:35:12;;;;;;;;;;;14.60;66.50;;;;;;5083367;28;19920;-68
2022/03/22 11:37:37;;;;;;;;;;;14.70;67.00;;;;;;5086133;28;19908;-68
2022/03/22 11:42:55;;;;;;;;;;;14.90;67.00;;;;;;5084962;28;19964;-68
2022/03/22 11:45:20;;;;;;;;;;;15.00;66.80;;;;;;5070591;28;19952;-68
2022/03/22 11:47:49;;;;;;;;;;;15.10;67.00;;;;;;5085062;28;19947;-68
2022/03/22 11:50:17;;;;;;;;;;;15.20;67.00;;;;;;5069811;28;19912;-68
2022/03/22 11:52:43;;;;;;;;;;;15.30;67.00;;;;;;5070153;28;19919;-68
2022/03/22 11:55:12;;;;;;;;;;;15.40;66.50;;;;;;5084024;28;19916;-68
2022/03/22 11:57:42;;;;;;;;;;;15.50;66.70;;;;;;5082954;28;19913;-68
2022/03/22 12:00:08;;;;;;;;;;;15.60;66.70;;;;;;5084069;28;19991;-68
2022/03/22 12:02:37;;;;;;;;;;;15.70;66.60;;;;;;5082523;28;19916;-68
2022/03/22 12:05:03;;;;;;;;;;;15.70;66.40;;;;;;5080038;28;19966;-68
2022/03/22 12:07:31;;;;;;;;;;;15.80;66.80;;;;;;5064062;28;19947;-68
2022/03/22 12:10:04;;;;;;;;;;;15.90;66.30;;;;;;5085601;28;19998;-68
2022/03/22 12:12:31;;;;;;;;;;;16.00;66.20;;;;;;5084447;28;19919;-68
2022/03/22 12:14:57;;;;;;;;;;;16.00;66.10;;;;;;5085075;28;19977;-68
2022/03/22 12:17:23;;;;;;;;;;;16.10;66.60;;;;;;5085452;28;20586;-68
2022/03/22 12:19:48;;;;;;;;;;;16.10;66.20;;;;;;5069627;28;19915;-68
2022/03/22 12:22:14;;;;;;;;;;;16.20;66.30;;;;;;5084177;28;19969;-68
2022/03/22 12:24:39;;;;;;;;;;;16.20;66.40;;;;;;5081916;28;19912;-68
2022/03/22 12:27:07;;;;;;;;;;;16.30;66.40;;;;;;5084139;28;19943;-69
2022/03/22 12:29:42;;;;;;;;;;;16.30;66.20;;;;;;5082794;28;19912;-72
2022/03/22 12:32:12;;;;;;;;;;;16.40;66.40;;;;;;5081790;28;19928;-72
2022/03/22 12:34:39;;;;;;;;;;;16.50;65.00;;;;;;5083638;28;20475;-72
2022/03/22 12:37:08;;;;;;;;;;;16.50;59.30;;;;;;5071150;28;19957;-72
2022/03/22 12:39:34;;;;;;;;;;;16.60;60.60;;;;;;5083230;28;20402;-72
2022/03/22 12:42:00;;;;;;;;;;;16.60;59.30;;;;;;5072481;28;20289;-72
2022/03/22 12:44:25;;;;;;;;;;;16.70;55.30;;;;;;5068995;28;19947;-72
2022/03/22 12:46:53;;;;;;;;;;;16.80;55.60;;;;;;5065548;28;19940;-72
2022/03/22 12:49:20;;;;;;;;;;;16.70;54.10;;;;;;5064396;28;20683;-72
2022/03/22 12:51:47;;;;;;;;;;;16.80;54.40;;;;;;5065097;28;19912;-72
2022/03/22 12:54:16;;;;;;;;;;;16.90;53.60;;;;;;5083470;28;19923;-72
2022/03/22 12:56:46;;;;;;;;;;;16.80;53.40;;;;;;5083297;28;19938;-72
2022/03/22 12:59:22;;;;;;;;;;;16.80;53.00;;;;;;5087523;28;19927;-72
2022/03/22 13:01:56;;;;;;;;;;;16.90;53.40;;;;;;5085406;28;19916;-72
2022/03/22 13:04:26;;;;;;;;;;;16.90;53.90;;;;;;5086358;28;20282;-72
2022/03/22 13:06:56;;;;;;;;;;;16.90;51.30;;;;;;5086509;28;20272;-72
2022/03/22 13:12:10;;;;;;;;;;;17.00;51.70;;;;;;5083252;28;19954;-72
2022/03/22 13:17:20;;;;;;;;;;;17.10;51.80;;;;;;5084267;28;19919;-72
2022/03/22 13:19:45;;;;;;;;;;;17.10;50.40;;;;;;5087817;28;19908;-72
2022/03/22 13:22:17;;;;;;;;;;;17.20;51.70;;;;;;5088131;28;19922;-72
2022/03/22 13:24:43;;;;;;;;;;;17.20;50.50;;;;;;5085123;28;19916;-72
2022/03/22 13:27:09;;;;;;;;;;;17.20;51.20;;;;;;5085827;28;19916;-72
2022/03/22 13:29:36;;;;;;;;;;;17.20;50.90;;;;;;5074525;28;20077;-72
2022/03/22 13:32:03;;;;;;;;;;;17.20;49.20;;;;;;5067820;28;20487;-72
2022/03/22 13:34:38;;;;;;;;;;;17.30;49.70;;;;;;5087597;28;20344;-72
2022/03/22 13:37:10;;;;;;;;;;;17.30;50.30;;;;;;5068698;28;19967;-72
2022/03/22 13:39:36;;;;;;;;;;;17.30;50.50;;;;;;5068708;28;20257;-72
2022/03/22 13:42:10;;;;;;;;;;;17.30;50.60;;;;;;5085610;28;20059;-72
2022/03/22 13:44:42;;;;;;;;;;;17.30;49.00;;;;;;5084645;28;20426;-80
2022/03/22 13:47:09;;;;;;;;;;;17.30;49.40;;;;;;5085921;28;19919;-71
2022/03/22 13:49:35;;;;;;;;;;;17.40;49.90;;;;;;5070695;28;19912;-71
2022/03/22 13:52:01;;;;;;;;;;;17.40;49.90;;;;;;5085032;28;19908;-72
2022/03/22 13:54:26;;;;;;;;;;;17.50;49.70;;;;;;5087789;28;19920;-72
2022/03/22 13:56:55;;;;;;;;;;;17.50;49.30;;;;;;5085795;28;20000;-73
2022/03/22 13:59:24;;;;;;;;;;;17.50;49.60;;;;;;5084508;28;19946;-70
2022/03/22 14:01:52;;;;;;;;;;;17.70;51.10;;;;;;5084328;28;19912;-70
2022/03/22 14:04:18;;;;;;;;;;;17.80;52.30;;;;;;5084846;28;20030;-71
2022/03/22 14:06:44;;;;;;;;;;;17.90;52.70;;;;;;5073527;28;20098;-67
2022/03/22 14:09:10;;;;;;;;;;;17.90;52.30;;;;;;5085279;28;19915;-69
2022/03/22 14:11:35;;;;;;;;;;;17.90;52.00;;;;;;5085960;28;19908;-75
2022/03/22 14:14:01;;;;;;;;;;;17.90;51.90;;;;;;5084470;28;20316;-75
2022/03/22 14:16:26;;;;;;;;;;;18.00;52.90;;;;;;5085744;28;20022;-69
2022/03/22 14:18:52;;;;;;;;;;;18.10;52.70;;;;;;5075665;28;20269;-69
2022/03/22 14:21:17;;;;;;;;;;;18.10;52.80;;;;;;5084730;28;19931;-69
2022/03/22 14:23:43;;;;;;;;;;;18.10;52.60;;;;;;5085951;28;19993;-70
2022/03/22 14:26:08;;;;;;;;;;;18.20;51.90;;;;;;5085788;28;20393;-73
2022/03/22 14:28:34;;;;;;;;;;;18.20;52.80;;;;;;5069758;28;19927;-69
2022/03/22 14:30:59;;;;;;;;;;;18.20;52.80;;;;;;5070470;28;19912;-73
2022/03/22 14:33:25;;;;;;;;;;;18.30;53.50;;;;;;5082718;28;20025;-73
2022/03/22 14:35:53;;;;;;;;;;;18.30;54.30;;;;;;5072934;28;20092;-71
2022/03/22 14:38:24;;;;;;;;;;;18.30;55.00;;;;;;5067824;28;20020;-72
2022/03/22 14:40:51;;;;;;;;;;;18.30;53.90;;;;;;5084003;28;19916;-76
2022/03/22 14:43:17;;;;;;;;;;;18.40;53.30;;;;;;5083548;28;19916;-75
2022/03/22 14:45:48;;;;;;;;;;;18.40;53.40;;;;;;5082148;28;19916;-73
2022/03/22 14:48:14;;;;;;;;;;;18.40;53.90;;;;;;5067043;28;19912;-70
2022/03/22 14:50:40;;;;;;;;;;;18.40;52.90;;;;;;5085426;28;19916;-69
2022/03/22 14:55:52;;;;;;;;;;;18.50;53.20;;;;;;5086934;28;19935;-69
2022/03/22 15:01:02;;;;;;;;;;;18.50;53.40;;;;;;5083233;28;20004;-68
2022/03/22 15:03:27;;;;;;;;;;;18.60;52.60;;;;;;5081922;28;20388;-72
2022/03/22 15:05:55;;;;;;;;;;;18.70;52.50;;;;;;5084635;28;19916;-74
2022/03/22 15:08:21;;;;;;;;;;;18.70;52.30;;;;;;5085514;28;19981;-76